createdAt,value
2017-12-11T00:00:01.183Z,0.47
2017-12-11T00:01:00.913Z,0.37
2017-12-11T00:02:01.197Z,0.34
2017-12-11T00:03:01.582Z,0.38
2017-12-11T00:04:01.151Z,0.42
2017-12-11T00:05:01.435Z,0.45
2017-12-11T00:06:01.161Z,0.35
2017-12-11T00:07:01.380Z,0.37
2017-12-11T00:08:01.651Z,0.42
2017-12-11T00:09:01.925Z,0.44
2017-12-11T00:10:02.043Z,0.34
2017-12-11T00:11:02.546Z,0.39
2017-12-11T00:12:02.081Z,0.24
2017-12-11T00:13:02.216Z,0.32
2017-12-11T00:14:02.617Z,0.27
2017-12-11T00:15:03.057Z,0.21
2017-12-11T00:16:02.746Z,0.24
2017-12-11T00:17:02.763Z,0.26
2017-12-11T00:18:03.052Z,0.19
2017-12-11T00:19:03.114Z,0.09
2017-12-11T00:20:03.225Z,0.19
2017-12-11T00:21:02.805Z,0.2
2017-12-11T00:22:03.242Z,0.08
2017-12-11T00:23:03.479Z,0.06
2017-12-11T00:24:03.298Z,0.08
2017-12-11T00:25:03.431Z,-0.01
2017-12-11T00:26:03.436Z,0.01
2017-12-11T00:27:02.968Z,-0.1
2017-12-11T00:28:03.521Z,-0.1
2017-12-11T00:29:03.505Z,-0.04
2017-12-11T00:30:03.532Z,-0.05
2017-12-11T00:31:04.052Z,-0.13
2017-12-11T00:32:04.046Z,-0.15
2017-12-11T00:33:04.187Z,-0.15
2017-12-11T00:34:04.314Z,-0.16
2017-12-11T00:35:04.393Z,-0.22
2017-12-11T00:36:04.620Z,-0.19
2017-12-11T00:37:05.167Z,-0.16
2017-12-11T00:38:05.135Z,-0.15
2017-12-11T00:39:04.876Z,-0.15
2017-12-11T00:40:05.101Z,-0.19
2017-12-11T00:41:05.325Z,-0.13
2017-12-11T00:42:05.080Z,-0.2
2017-12-11T00:43:05.887Z,-0.12
2017-12-11T00:44:06.066Z,-0.13
2017-12-11T00:45:06.520Z,-0.19
2017-12-11T00:46:05.902Z,-0.07
2017-12-11T00:47:06.069Z,-0.05
2017-12-11T00:48:06.112Z,-0.05
2017-12-11T00:49:06.347Z,-0.07
2017-12-11T00:50:06.362Z,0.01
2017-12-11T00:51:06.169Z,0.03
2017-12-11T00:52:06.604Z,0.06
2017-12-11T00:53:06.169Z,0.17
2017-12-11T00:54:06.566Z,0.14
2017-12-11T00:55:06.637Z,0.09
2017-12-11T00:56:06.675Z,0.23
2017-12-11T00:57:06.432Z,0.19
2017-12-11T00:58:06.825Z,0.24
2017-12-11T00:59:07.295Z,0.26
2017-12-11T01:00:07.657Z,0.24
2017-12-11T01:01:06.846Z,0.27
2017-12-11T01:02:07.696Z,0.28
2017-12-11T01:03:07.848Z,0.28
2017-12-11T01:04:07.844Z,0.28
2017-12-11T01:05:07.146Z,0.31
2017-12-11T01:06:07.553Z,0.32
2017-12-11T01:07:09.980Z,0.37
2017-12-11T01:08:09.680Z,0.31
2017-12-11T01:09:09.973Z,0.37
2017-12-11T01:10:10.090Z,0.42
2017-12-11T01:12:10.349Z,0.56
2017-12-11T01:13:10.818Z,0.5
2017-12-11T01:14:09.878Z,0.5
2017-12-11T01:15:09.992Z,0.66
2017-12-11T01:16:10.262Z,0.64
2017-12-11T01:17:10.723Z,0.6
2017-12-11T01:18:10.060Z,0.61
2017-12-11T01:19:10.951Z,0.64
2017-12-11T01:20:10.762Z,0.69
2017-12-11T01:21:10.893Z,0.69
2017-12-11T01:22:10.920Z,0.69
2017-12-11T01:23:11.255Z,0.84
2017-12-11T01:24:10.844Z,0.75
2017-12-11T01:25:11.978Z,0.84
2017-12-11T01:26:11.479Z,0.82
2017-12-11T01:27:10.880Z,0.89
2017-12-11T01:28:10.894Z,0.89
2017-12-11T01:29:11.081Z,0.86
2017-12-11T01:30:11.767Z,0.93
2017-12-11T01:31:12.169Z,0.93
2017-12-11T01:32:12.544Z,0.94
2017-12-11T01:33:12.272Z,0.97
2017-12-11T01:34:12.700Z,1
2017-12-11T01:35:12.706Z,1.02
2017-12-11T01:36:12.733Z,0.97
2017-12-11T01:37:12.832Z,1
2017-12-11T01:38:12.826Z,1.07
2017-12-11T01:39:12.527Z,1.07
2017-12-11T01:40:12.941Z,1.14
2017-12-11T01:41:12.988Z,1.08
2017-12-11T01:42:12.744Z,1.18
2017-12-11T01:43:13.155Z,1.11
2017-12-11T01:44:13.584Z,1.2
2017-12-11T01:45:13.632Z,1.26
2017-12-11T01:46:13.937Z,1.3
2017-12-11T01:47:13.932Z,1.35
2017-12-11T01:48:14.010Z,1.38
2017-12-11T01:49:13.954Z,1.4
2017-12-11T01:50:15.352Z,1.38
2017-12-11T01:51:14.023Z,1.44
2017-12-11T01:52:14.189Z,1.4
2017-12-11T01:53:14.684Z,1.46
2017-12-11T01:54:14.610Z,1.56
2017-12-11T01:55:14.651Z,1.48
2017-12-11T01:56:14.623Z,1.64
2017-12-11T01:57:15.281Z,1.66
2017-12-11T01:58:15.341Z,1.68
2017-12-11T01:59:15.307Z,1.76
2017-12-11T02:00:15.897Z,1.72
2017-12-11T02:01:15.817Z,1.87
2017-12-11T02:02:15.818Z,1.84
2017-12-11T02:03:15.771Z,1.9
2017-12-11T02:04:16.271Z,2.08
2017-12-11T02:05:16.432Z,2.02
2017-12-11T02:06:16.259Z,2.08
2017-12-11T02:07:16.224Z,2.05
2017-12-11T02:08:16.392Z,2.16
2017-12-11T02:09:16.501Z,2.15
2017-12-11T02:10:16.751Z,2.24
2017-12-11T02:11:17.126Z,2.42
2017-12-11T02:12:17.154Z,2.31
2017-12-11T02:13:17.599Z,2.4
2017-12-11T02:14:17.618Z,2.44
2017-12-11T02:15:17.639Z,2.59
2017-12-11T02:16:18.052Z,2.62
2017-12-11T02:17:18.475Z,2.72
2017-12-11T02:18:18.542Z,2.72
2017-12-11T02:19:18.502Z,2.65
2017-12-11T02:20:18.885Z,2.69
2017-12-11T02:21:18.574Z,2.8
2017-12-11T02:22:18.573Z,2.78
2017-12-11T02:23:18.795Z,2.83
2017-12-11T02:24:19.006Z,2.96
2017-12-11T02:25:19.442Z,3.01
2017-12-11T02:26:19.838Z,2.99
2017-12-11T02:27:19.904Z,2.99
2017-12-11T02:28:20.315Z,3.13
2017-12-11T02:29:20.360Z,3.2
2017-12-11T02:30:20.385Z,3.2
2017-12-11T02:31:20.566Z,3.2
2017-12-11T02:32:21.135Z,3.17
2017-12-11T02:33:20.985Z,3.19
2017-12-11T02:34:20.733Z,3.27
2017-12-11T02:35:21.436Z,3.29
2017-12-11T02:36:21.543Z,3.17
2017-12-11T02:37:21.902Z,3.2
2017-12-11T02:38:21.974Z,3.37
2017-12-11T02:39:21.680Z,3.39
2017-12-11T02:40:22.280Z,3.32
2017-12-11T02:41:21.673Z,3.39
2017-12-11T02:42:22.320Z,3.43
2017-12-11T02:43:22.559Z,3.39
2017-12-11T02:44:22.310Z,3.37
2017-12-11T02:45:22.732Z,3.46
2017-12-11T02:46:22.764Z,3.48
2017-12-11T02:47:27.812Z,3.48
2017-12-11T02:48:28.226Z,3.42
2017-12-11T02:49:28.261Z,3.53
2017-12-11T02:50:28.384Z,3.43
2017-12-11T02:51:28.592Z,3.49
2017-12-11T02:52:28.305Z,3.39
2017-12-11T02:53:28.726Z,3.46
2017-12-11T02:54:28.504Z,3.43
2017-12-11T02:55:28.910Z,3.49
2017-12-11T02:56:29.315Z,3.49
2017-12-11T02:57:29.067Z,3.46
2017-12-11T02:58:29.335Z,3.54
2017-12-11T02:59:29.375Z,3.57
2017-12-11T03:00:29.543Z,3.53
2017-12-11T03:01:29.592Z,3.63
2017-12-11T03:02:29.643Z,3.64
2017-12-11T03:03:31.836Z,3.6
2017-12-11T03:04:29.396Z,3.63
2017-12-11T03:05:29.556Z,3.64
2017-12-11T03:06:30.101Z,3.63
2017-12-11T03:07:30.978Z,3.67
2017-12-11T03:08:30.994Z,3.6
2017-12-11T03:09:30.984Z,3.67
2017-12-11T03:10:31.016Z,3.67
2017-12-11T03:11:31.037Z,3.71
2017-12-11T03:12:31.491Z,3.69
2017-12-11T03:13:31.178Z,3.67
2017-12-11T03:14:31.397Z,3.66
2017-12-11T03:15:31.678Z,3.67
2017-12-11T03:16:31.873Z,3.64
2017-12-11T03:17:31.899Z,3.64
2017-12-11T03:18:31.921Z,3.53
2017-12-11T03:19:32.059Z,3.49
2017-12-11T03:20:32.086Z,3.54
2017-12-11T03:21:32.086Z,3.54
2017-12-11T03:22:32.367Z,3.46
2017-12-11T03:23:32.131Z,3.51
2017-12-11T03:24:31.884Z,3.51
2017-12-11T03:25:32.554Z,3.54
2017-12-11T03:26:32.301Z,3.48
2017-12-11T03:27:32.488Z,3.51
2017-12-11T03:28:32.887Z,3.53
2017-12-11T03:29:33.325Z,3.51
2017-12-11T03:30:48.402Z,3.53
2017-12-11T03:31:48.368Z,3.49
2017-12-11T03:32:47.841Z,3.6
2017-12-11T03:33:48.674Z,3.54
2017-12-11T03:34:48.434Z,3.53
2017-12-11T03:35:48.438Z,3.6
2017-12-11T03:36:48.363Z,3.54
2017-12-11T03:37:48.908Z,3.56
2017-12-11T03:38:48.904Z,3.57
2017-12-11T03:39:50.065Z,3.61
2017-12-11T03:40:49.219Z,3.6
2017-12-11T03:41:49.772Z,3.63
2017-12-11T03:42:50.324Z,3.61
2017-12-11T03:43:50.324Z,3.63
2017-12-11T03:44:49.376Z,3.63
2017-12-11T03:45:49.940Z,3.58
2017-12-11T03:46:49.606Z,3.6
2017-12-11T03:47:51.354Z,3.66
2017-12-11T03:48:50.325Z,3.58
2017-12-11T03:49:50.377Z,3.56
2017-12-11T03:50:50.032Z,3.66
2017-12-11T03:51:50.308Z,3.64
2017-12-11T03:52:50.388Z,3.58
2017-12-11T03:53:50.363Z,3.57
2017-12-11T03:54:50.778Z,3.61
2017-12-11T03:55:50.536Z,3.66
2017-12-11T03:56:50.815Z,3.64
2017-12-11T03:57:51.102Z,3.64
2017-12-11T03:58:51.035Z,3.64
2017-12-11T03:59:51.083Z,3.75
2017-12-11T04:00:51.103Z,3.63
2017-12-11T04:01:51.187Z,3.76
2017-12-11T04:02:51.369Z,3.75
2017-12-11T04:04:51.834Z,3.76
2017-12-11T04:05:51.424Z,3.63
2017-12-11T04:06:51.615Z,3.69
2017-12-11T04:08:00.684Z,3.66
2017-12-11T04:09:00.144Z,3.69
2017-12-11T04:10:00.872Z,3.67
2017-12-11T04:11:00.915Z,3.66
2017-12-11T04:12:00.858Z,3.63
2017-12-11T04:13:01.273Z,3.69
2017-12-11T04:14:01.392Z,3.79
2017-12-11T04:15:01.521Z,3.75
2017-12-11T04:16:01.533Z,3.66
2017-12-11T04:17:01.545Z,3.66
2017-12-11T04:18:01.717Z,3.66
2017-12-11T04:19:01.915Z,3.72
2017-12-11T04:20:02.354Z,3.67
2017-12-11T04:21:02.274Z,3.67
2017-12-11T04:22:02.136Z,3.67
2017-12-11T04:23:02.890Z,3.63
2017-12-11T04:24:02.644Z,3.66
2017-12-11T04:25:02.559Z,3.67
2017-12-11T04:26:03.008Z,3.67
2017-12-11T04:27:03.343Z,3.66
2017-12-11T04:28:03.192Z,3.6
2017-12-11T04:29:03.340Z,3.61
2017-12-11T04:30:02.967Z,3.64
2017-12-11T04:31:03.326Z,3.63
2017-12-11T04:32:02.899Z,3.58
2017-12-11T04:33:03.408Z,3.66
2017-12-11T04:34:03.882Z,3.66
2017-12-11T04:35:03.914Z,3.58
2017-12-11T04:36:03.999Z,3.57
2017-12-11T04:37:03.635Z,3.6
2017-12-11T04:38:04.033Z,3.53
2017-12-11T04:39:04.040Z,3.63
2017-12-11T04:40:04.244Z,3.56
2017-12-11T04:41:04.215Z,3.58
2017-12-11T04:42:05.146Z,3.53
2017-12-11T04:43:03.993Z,3.56
2017-12-11T04:44:04.473Z,3.58
2017-12-11T04:45:04.680Z,3.53
2017-12-11T04:46:04.630Z,3.48
2017-12-11T04:47:04.771Z,3.51
2017-12-11T04:48:05.697Z,3.53
2017-12-11T04:49:06.240Z,3.45
2017-12-11T04:50:05.122Z,3.51
2017-12-11T04:51:05.420Z,3.46
2017-12-11T04:52:05.353Z,3.51
2017-12-11T04:53:05.783Z,3.46
2017-12-11T04:54:06.252Z,3.45
2017-12-11T04:55:06.660Z,3.49
2017-12-11T04:56:05.951Z,3.51
2017-12-11T04:57:06.235Z,3.43
2017-12-11T04:58:06.694Z,3.49
2017-12-11T04:59:06.603Z,3.45
2017-12-11T05:02:21.687Z,3.4
2017-12-11T05:03:22.190Z,3.46
2017-12-11T05:04:22.189Z,3.43
2017-12-11T05:05:21.970Z,3.46
2017-12-11T05:06:22.251Z,3.43
2017-12-11T05:07:22.576Z,3.43
2017-12-11T05:08:22.918Z,3.37
2017-12-11T05:09:23.163Z,3.4
2017-12-11T05:10:23.140Z,3.39
2017-12-11T05:11:23.856Z,3.39
2017-12-11T05:12:24.075Z,3.34
2017-12-11T05:13:24.058Z,3.4
2017-12-11T05:14:24.608Z,3.37
2017-12-11T05:15:24.599Z,3.4
2017-12-11T05:16:25.038Z,3.37
2017-12-11T05:17:25.723Z,3.37
2017-12-11T05:18:25.747Z,3.29
2017-12-11T05:19:25.539Z,3.35
2017-12-11T05:20:25.971Z,3.3
2017-12-11T05:21:25.448Z,3.42
2017-12-11T05:22:26.005Z,3.32
2017-12-11T05:23:26.424Z,3.3
2017-12-11T05:24:26.670Z,3.2
2017-12-11T05:25:26.773Z,3.2
2017-12-11T05:26:26.651Z,3.35
2017-12-11T05:27:27.163Z,3.35
2017-12-11T05:28:27.392Z,3.3
2017-12-11T05:29:27.365Z,3.32
2017-12-11T05:30:27.542Z,3.21
2017-12-11T05:31:27.584Z,3.19
2017-12-11T05:32:27.184Z,3.09
2017-12-11T05:33:27.685Z,2.98
2017-12-11T05:34:28.529Z,2.98
2017-12-11T05:35:27.916Z,2.98
2017-12-11T05:36:27.748Z,2.84
2017-12-11T05:37:27.788Z,2.72
2017-12-11T05:38:27.658Z,2.7
2017-12-11T05:39:27.756Z,2.69
2017-12-11T05:40:27.393Z,2.6
2017-12-11T05:41:27.320Z,2.59
2017-12-11T05:42:28.147Z,2.59
2017-12-11T05:43:28.650Z,2.51
2017-12-11T05:44:28.540Z,2.54
2017-12-11T05:45:29.053Z,2.49
2017-12-11T05:46:28.500Z,2.55
2017-12-11T05:47:29.023Z,2.52
2017-12-11T05:48:29.040Z,2.44
2017-12-11T05:49:29.096Z,2.48
2017-12-11T05:50:28.726Z,2.47
2017-12-11T05:51:29.503Z,2.45
2017-12-11T05:52:29.595Z,2.44
2017-12-11T05:53:29.554Z,2.45
2017-12-11T05:54:30.304Z,2.42
2017-12-11T05:55:30.005Z,2.42
2017-12-11T05:56:30.528Z,2.33
2017-12-11T05:57:30.065Z,2.33
2017-12-11T05:58:29.565Z,2.36
2017-12-11T05:59:30.297Z,2.4
2017-12-11T06:00:35.470Z,2.31
2017-12-11T06:01:35.327Z,2.34
2017-12-11T06:02:35.758Z,2.38
2017-12-11T06:03:35.653Z,2.27
2017-12-11T06:04:36.206Z,2.23
2017-12-11T06:05:36.697Z,2.24
2017-12-11T06:06:36.772Z,2.29
2017-12-11T06:07:36.747Z,2.38
2017-12-11T06:08:36.500Z,2.31
2017-12-11T06:09:37.189Z,2.36
2017-12-11T06:10:37.614Z,2.36
2017-12-11T06:11:37.990Z,2.29
2017-12-11T06:12:37.722Z,2.47
2017-12-11T06:13:38.455Z,2.41
2017-12-11T06:14:38.890Z,2.48
2017-12-11T06:15:39.316Z,2.47
2017-12-11T06:16:39.732Z,2.59
2017-12-11T06:17:39.602Z,2.54
2017-12-11T06:18:40.035Z,2.58
2017-12-11T06:19:40.489Z,2.58
2017-12-11T06:20:40.239Z,2.69
2017-12-11T06:21:40.185Z,2.59
2017-12-11T06:22:40.405Z,2.63
2017-12-11T06:23:40.994Z,2.55
2017-12-11T06:24:41.052Z,2.55
2017-12-11T06:25:40.818Z,2.44
2017-12-11T06:26:41.322Z,2.42
2017-12-11T06:27:41.266Z,2.42
2017-12-11T06:28:41.198Z,2.42
2017-12-11T06:29:41.127Z,2.42
2017-12-11T06:30:41.652Z,2.45
2017-12-11T06:31:42.022Z,2.31
2017-12-11T06:32:42.380Z,2.36
2017-12-11T06:33:42.431Z,2.3
2017-12-11T06:34:42.649Z,2.31
2017-12-11T06:35:42.832Z,2.27
2017-12-11T06:36:43.573Z,2.27
2017-12-11T06:37:43.298Z,2.36
2017-12-11T06:38:43.581Z,2.38
2017-12-11T06:39:44.040Z,2.36
2017-12-11T06:40:43.782Z,2.18
2017-12-11T06:41:44.484Z,2.2
2017-12-11T06:42:44.909Z,2.08
2017-12-11T06:43:45.384Z,2.11
2017-12-11T06:44:45.463Z,2.04
2017-12-11T06:45:45.462Z,2.05
2017-12-11T06:46:45.959Z,2.01
2017-12-11T06:47:45.626Z,1.87
2017-12-11T06:48:45.476Z,1.89
2017-12-11T06:49:45.893Z,1.82
2017-12-11T06:50:45.375Z,1.82
2017-12-11T06:51:45.922Z,1.72
2017-12-11T06:52:46.111Z,1.72
2017-12-11T06:53:46.569Z,1.79
2017-12-11T06:54:46.576Z,1.71
2017-12-11T06:55:46.584Z,1.65
2017-12-11T06:56:46.738Z,1.61
2017-12-11T06:57:46.921Z,1.65
2017-12-11T06:58:47.343Z,1.46
2017-12-11T06:59:47.342Z,1.53
2017-12-11T07:00:48.048Z,1.53
2017-12-11T07:01:48.016Z,1.5
2017-12-11T07:02:48.024Z,1.35
2017-12-11T07:03:48.046Z,1.42
2017-12-11T07:04:48.070Z,1.4
2017-12-11T07:05:48.341Z,1.48
2017-12-11T07:06:48.542Z,1.48
2017-12-11T07:07:48.738Z,1.53
2017-12-11T07:08:48.711Z,1.56
2017-12-11T07:09:49.051Z,1.58
2017-12-11T07:10:48.642Z,1.51
2017-12-11T07:11:49.387Z,1.58
2017-12-11T07:12:49.872Z,1.61
2017-12-11T07:13:49.791Z,1.57
2017-12-11T07:14:49.916Z,1.58
2017-12-11T07:15:49.860Z,1.44
2017-12-11T07:16:49.869Z,1.57
2017-12-11T07:17:49.753Z,1.44
2017-12-11T07:18:50.185Z,1.54
2017-12-11T07:19:50.452Z,1.47
2017-12-11T07:20:50.608Z,1.46
2017-12-11T07:21:51.170Z,1.54
2017-12-11T07:22:50.637Z,1.48
2017-12-11T07:23:51.189Z,1.39
2017-12-11T07:24:51.428Z,1.47
2017-12-11T07:25:51.284Z,1.42
2017-12-11T07:26:51.300Z,1.38
2017-12-11T07:27:50.977Z,1.36
2017-12-11T07:28:51.891Z,1.33
2017-12-11T07:29:51.544Z,1.4
2017-12-11T07:30:51.831Z,1.4
2017-12-11T07:32:06.150Z,1.4
2017-12-11T07:32:51.573Z,1.42
2017-12-11T07:33:52.334Z,1.36
2017-12-11T07:34:52.346Z,1.36
2017-12-11T07:35:52.920Z,1.32
2017-12-11T07:36:52.094Z,1.35
2017-12-11T07:37:52.414Z,1.24
2017-12-11T07:38:53.797Z,1.28
2017-12-11T07:39:54.232Z,1.22
2017-12-11T07:40:53.373Z,1.18
2017-12-11T07:41:53.353Z,1.22
2017-12-11T07:42:53.763Z,1.26
2017-12-11T07:43:53.684Z,1.18
2017-12-11T07:44:53.456Z,1.2
2017-12-11T07:45:53.827Z,1.26
2017-12-11T07:46:53.614Z,1.14
2017-12-11T07:47:53.625Z,1.11
2017-12-11T07:48:54.055Z,1.18
2017-12-11T07:49:53.768Z,1.32
2017-12-11T07:50:54.488Z,1.35
2017-12-11T07:51:55.023Z,1.42
2017-12-11T07:52:55.430Z,1.38
2017-12-11T07:53:55.459Z,1.42
2017-12-11T07:54:55.890Z,1.48
2017-12-11T07:55:56.194Z,1.51
2017-12-11T07:56:56.193Z,1.58
2017-12-11T07:57:56.024Z,1.61
2017-12-11T07:58:56.289Z,1.64
2017-12-11T07:59:56.081Z,1.68
2017-12-11T08:00:56.549Z,1.82
2017-12-11T08:01:56.138Z,1.72
2017-12-11T08:02:56.458Z,1.79
2017-12-11T08:03:56.463Z,1.86
2017-12-11T08:04:56.887Z,1.94
2017-12-11T08:05:57.113Z,1.9
2017-12-11T08:06:57.073Z,2.02
2017-12-11T08:07:57.610Z,2.06
2017-12-11T08:08:57.667Z,2.05
2017-12-11T08:09:58.145Z,2.06
2017-12-11T08:10:57.919Z,2.11
2017-12-11T08:11:57.857Z,2.12
2017-12-11T08:12:58.159Z,2.23
2017-12-11T08:13:58.911Z,2.2
2017-12-11T08:14:58.188Z,2.27
2017-12-11T08:15:58.453Z,2.31
2017-12-11T08:16:58.132Z,2.26
2017-12-11T08:17:58.825Z,2.24
2017-12-11T08:18:58.907Z,2.33
2017-12-11T08:19:58.929Z,2.45
2017-12-11T08:20:59.102Z,2.34
2017-12-11T08:21:59.059Z,2.4
2017-12-11T08:22:59.301Z,2.42
2017-12-11T08:23:59.733Z,2.48
2017-12-11T08:25:00.500Z,2.45
2017-12-11T08:25:59.917Z,2.42
2017-12-11T08:27:00.237Z,2.6
2017-12-11T08:28:00.046Z,2.58
2017-12-11T08:29:00.062Z,2.6
2017-12-11T08:30:00.713Z,2.58
2017-12-11T08:31:00.718Z,2.59
2017-12-11T08:32:01.413Z,2.65
2017-12-11T08:33:00.143Z,2.67
2017-12-11T08:34:00.568Z,2.7
2017-12-11T08:35:00.762Z,2.7
2017-12-11T08:36:00.498Z,2.69
2017-12-11T08:37:01.221Z,2.66
2017-12-11T08:38:01.457Z,2.76
2017-12-11T08:39:16.302Z,2.7
2017-12-11T08:40:01.327Z,2.7
2017-12-11T08:41:01.114Z,2.72
2017-12-11T08:42:06.027Z,2.87
2017-12-11T08:43:06.004Z,2.76
2017-12-11T08:44:06.386Z,2.73
2017-12-11T08:45:06.682Z,2.78
2017-12-11T08:46:06.449Z,2.78
2017-12-11T08:47:07.202Z,2.81
2017-12-11T08:48:07.414Z,2.77
2017-12-11T08:49:07.973Z,2.81
2017-12-11T08:50:07.939Z,2.83
2017-12-11T08:51:08.204Z,2.76
2017-12-11T08:52:06.388Z,2.73
2017-12-11T08:53:06.713Z,2.73
2017-12-11T08:54:06.936Z,2.76
2017-12-11T08:55:07.223Z,2.77
2017-12-11T08:56:07.597Z,2.8
2017-12-11T08:57:07.113Z,2.83
2017-12-11T08:58:06.847Z,2.84
2017-12-11T08:59:06.916Z,2.87
2017-12-11T09:00:07.129Z,2.84
2017-12-11T09:01:06.453Z,2.9
2017-12-11T09:02:06.897Z,2.8
2017-12-11T09:03:06.733Z,2.85
2017-12-11T09:04:07.716Z,2.85
2017-12-11T09:05:07.934Z,2.83
2017-12-11T09:06:08.780Z,2.85
2017-12-11T09:07:08.148Z,2.87
2017-12-11T09:08:08.048Z,2.85
2017-12-11T09:09:07.960Z,2.95
2017-12-11T09:10:08.770Z,3.03
2017-12-11T09:11:08.973Z,2.96
2017-12-11T09:12:08.189Z,2.93
2017-12-11T09:13:08.764Z,2.96
2017-12-11T09:14:08.156Z,2.98
2017-12-11T09:15:08.129Z,3.01
2017-12-11T09:16:08.538Z,2.95
2017-12-11T09:17:08.731Z,2.96
2017-12-11T09:18:08.749Z,2.99
2017-12-11T09:19:09.594Z,2.95
2017-12-11T09:20:08.575Z,2.99
2017-12-11T09:21:09.027Z,3.11
2017-12-11T09:22:09.194Z,2.99
2017-12-11T09:23:08.625Z,3.03
2017-12-11T09:24:09.460Z,3.01
2017-12-11T09:25:09.795Z,3.16
2017-12-11T09:26:09.942Z,3.06
2017-12-11T09:27:09.692Z,3.13
2017-12-11T09:28:24.852Z,3.06
2017-12-11T09:29:09.871Z,3.01
2017-12-11T09:30:10.058Z,3.01
2017-12-11T09:31:09.954Z,3.05
2017-12-11T09:32:10.100Z,3.06
2017-12-11T09:33:09.762Z,3.09
2017-12-11T09:34:09.783Z,3.11
2017-12-11T09:35:10.644Z,3.08
2017-12-11T09:36:10.268Z,3.06
2017-12-11T09:37:11.121Z,3.17
2017-12-11T09:38:11.093Z,3.11
2017-12-11T09:39:10.902Z,3.11
2017-12-11T09:40:11.147Z,3.11
2017-12-11T09:41:11.599Z,3.09
2017-12-11T09:42:11.407Z,3.19
2017-12-11T09:43:11.660Z,3.09
2017-12-11T09:44:11.464Z,3.16
2017-12-11T09:45:11.900Z,3.16
2017-12-11T09:46:11.800Z,3.11
2017-12-11T09:47:11.887Z,3.09
2017-12-11T09:48:11.992Z,3.13
2017-12-11T09:49:12.397Z,3.05
2017-12-11T09:50:12.786Z,3.11
2017-12-11T09:51:12.560Z,3.09
2017-12-11T09:52:12.570Z,2.98
2017-12-11T09:53:13.054Z,3.08
2017-12-11T09:54:12.781Z,3.09
2017-12-11T09:55:12.985Z,3.09
2017-12-11T09:56:13.005Z,3.17
2017-12-11T09:57:13.486Z,3.11
2017-12-11T09:58:13.502Z,3.06
2017-12-11T09:59:13.695Z,3.2
2017-12-11T10:00:13.308Z,3.13
2017-12-11T10:01:14.691Z,3.21
2017-12-11T10:02:14.243Z,3.26
2017-12-11T10:03:14.429Z,3.13
2017-12-11T10:04:13.949Z,3.23
2017-12-11T10:05:14.203Z,3.29
2017-12-11T10:06:13.989Z,3.29
2017-12-11T10:07:14.295Z,3.21
2017-12-11T10:08:14.296Z,3.21
2017-12-11T10:09:14.050Z,3.35
2017-12-11T10:10:14.477Z,3.34
2017-12-11T10:11:14.840Z,3.35
2017-12-11T10:12:14.644Z,3.34
2017-12-11T10:13:14.392Z,3.34
2017-12-11T10:14:14.981Z,3.27
2017-12-11T10:15:15.148Z,3.32
2017-12-11T10:16:14.901Z,3.16
2017-12-11T10:17:15.349Z,3.2
2017-12-11T10:18:15.097Z,3.23
2017-12-11T10:19:15.095Z,3.21
2017-12-11T10:20:16.061Z,3.21
2017-12-11T10:21:15.542Z,3.17
2017-12-11T10:22:15.482Z,3.23
2017-12-11T10:23:16.165Z,3.21
2017-12-11T10:24:16.237Z,3.17
2017-12-11T10:25:15.965Z,3.2
2017-12-11T10:26:16.760Z,3.17
2017-12-11T10:27:16.412Z,3.23
2017-12-11T10:28:17.535Z,3.17
2017-12-11T10:29:16.425Z,3.23
2017-12-11T10:31:16.619Z,3.17
2017-12-11T10:32:16.297Z,3.13
2017-12-11T10:33:18.484Z,3.02
2017-12-11T10:34:16.628Z,3.05
2017-12-11T10:35:16.951Z,3.08
2017-12-11T10:36:17.668Z,3.09
2017-12-11T10:37:17.983Z,3.09
2017-12-11T10:38:17.666Z,3.02
2017-12-11T10:39:17.890Z,3.06
2017-12-11T10:40:17.632Z,3.09
2017-12-11T10:41:19.549Z,3.14
2017-12-11T10:42:19.260Z,3.11
2017-12-11T10:43:18.469Z,3.06
2017-12-11T10:44:18.754Z,3.17
2017-12-11T10:45:19.171Z,3.05
2017-12-11T10:46:19.370Z,3.13
2017-12-11T10:47:19.181Z,3.09
2017-12-11T10:48:19.388Z,3.09
2017-12-11T10:49:19.953Z,3.06
2017-12-11T10:50:19.255Z,3.06
2017-12-11T10:51:19.460Z,3.05
2017-12-11T10:52:19.246Z,3.03
2017-12-11T10:53:19.280Z,3.11
2017-12-11T10:54:19.486Z,3.11
2017-12-11T10:55:20.129Z,3.17
2017-12-11T10:56:20.534Z,3.2
2017-12-11T10:57:20.342Z,3.19
2017-12-11T10:58:20.896Z,3.2
2017-12-11T10:59:20.359Z,3.14
2017-12-11T11:00:20.216Z,3.16
2017-12-11T11:01:20.894Z,3.16
2017-12-11T11:02:20.870Z,3.24
2017-12-11T11:03:20.654Z,3.17
2017-12-11T11:04:20.574Z,3.17
2017-12-11T11:05:20.834Z,3.17
2017-12-11T11:06:20.656Z,3.23
2017-12-11T11:07:20.574Z,3.21
2017-12-11T11:08:21.157Z,3.23
2017-12-11T11:09:20.810Z,3.29
2017-12-11T11:10:20.580Z,3.32
2017-12-11T11:11:21.498Z,3.32
2017-12-11T11:12:21.172Z,3.24
2017-12-11T11:13:22.447Z,3.35
2017-12-11T11:14:21.190Z,3.3
2017-12-11T11:15:21.233Z,3.29
2017-12-11T11:16:21.157Z,3.29
2017-12-11T11:17:21.431Z,3.26
2017-12-11T11:18:21.234Z,3.3
2017-12-11T11:19:21.986Z,3.37
2017-12-11T11:20:21.751Z,3.4
2017-12-11T11:21:22.061Z,3.3
2017-12-11T11:22:22.004Z,3.3
2017-12-11T11:23:21.964Z,3.42
2017-12-11T11:24:21.742Z,3.32
2017-12-11T11:25:22.189Z,3.35
2017-12-11T11:26:22.118Z,3.3
2017-12-11T11:27:22.274Z,3.32
2017-12-11T11:28:23.043Z,3.3
2017-12-11T11:29:23.697Z,3.35
2017-12-11T11:30:22.916Z,3.29
2017-12-11T11:31:23.174Z,3.2
2017-12-11T11:32:23.340Z,3.39
2017-12-11T11:33:24.063Z,3.34
2017-12-11T11:34:24.061Z,3.4
2017-12-11T11:35:24.960Z,3.37
2017-12-11T11:36:24.533Z,3.32
2017-12-11T11:37:24.634Z,3.32
2017-12-11T11:38:24.303Z,3.4
2017-12-11T11:39:24.407Z,3.35
2017-12-11T11:40:24.842Z,3.39
2017-12-11T11:41:25.280Z,3.34
2017-12-11T11:42:25.289Z,3.32
2017-12-11T11:43:24.778Z,3.27
2017-12-11T11:44:25.211Z,3.3
2017-12-11T11:45:25.008Z,3.29
2017-12-11T11:46:25.863Z,3.2
2017-12-11T11:47:25.490Z,3.29
2017-12-11T11:48:25.864Z,3.29
2017-12-11T11:49:25.833Z,3.27
2017-12-11T11:50:25.909Z,3.29
2017-12-11T11:51:25.872Z,3.26
2017-12-11T11:52:25.820Z,3.27
2017-12-11T11:53:25.876Z,3.23
2017-12-11T11:54:26.046Z,3.23
2017-12-11T11:55:25.985Z,3.19
2017-12-11T11:56:26.401Z,3.2
2017-12-11T11:57:27.040Z,3.3
2017-12-11T11:58:27.101Z,3.3
2017-12-11T11:59:27.050Z,3.19
2017-12-11T12:00:27.156Z,3.24
2017-12-11T12:01:29.836Z,3.26
2017-12-11T12:02:28.602Z,3.26
2017-12-11T12:03:28.838Z,3.29
2017-12-11T12:04:28.840Z,3.29
2017-12-11T12:05:28.576Z,3.2
2017-12-11T12:06:28.900Z,3.3
2017-12-11T12:07:28.949Z,3.21
2017-12-11T12:08:28.831Z,3.39
2017-12-11T12:09:28.822Z,3.17
2017-12-11T12:10:29.325Z,3.39
2017-12-11T12:11:29.104Z,3.34
2017-12-11T12:12:29.176Z,3.37
2017-12-11T12:13:29.395Z,3.21
2017-12-11T12:14:29.379Z,3.34
2017-12-11T12:15:29.826Z,3.27
2017-12-11T12:16:29.733Z,3.26
2017-12-11T12:17:29.761Z,3.32
2017-12-11T12:18:30.215Z,3.32
2017-12-11T12:19:29.647Z,3.2
2017-12-11T12:20:30.626Z,3.42
2017-12-11T12:21:29.979Z,3.35
2017-12-11T12:22:30.256Z,3.27
2017-12-11T12:23:30.404Z,3.24
2017-12-11T12:24:30.673Z,3.21
2017-12-11T12:25:32.852Z,3.26
2017-12-11T12:26:31.006Z,3.2
2017-12-11T12:27:30.655Z,3.27
2017-12-11T12:28:30.957Z,3.29
2017-12-11T12:29:32.552Z,3.26
2017-12-11T12:30:32.209Z,3.29
2017-12-11T12:31:32.044Z,3.29
2017-12-11T12:32:31.938Z,3.16
2017-12-11T12:33:31.434Z,3.21
2017-12-11T12:34:32.456Z,3.27
2017-12-11T12:35:32.489Z,3.23
2017-12-11T12:36:32.362Z,3.32
2017-12-11T12:37:33.557Z,3.35
2017-12-11T12:38:32.517Z,3.21
2017-12-11T12:39:32.497Z,3.27
2017-12-11T12:40:32.259Z,3.19
2017-12-11T12:41:32.522Z,3.23
2017-12-11T12:42:33.451Z,3.2
2017-12-11T12:43:32.855Z,3.2
2017-12-11T12:44:32.705Z,3.16
2017-12-11T12:45:33.811Z,3.17
2017-12-11T12:46:34.100Z,3.19
2017-12-11T12:47:33.911Z,3.16
2017-12-11T12:48:34.719Z,3.19
2017-12-11T12:49:34.322Z,3.19
2017-12-11T12:50:34.673Z,3.2
2017-12-11T12:51:33.884Z,3.21
2017-12-11T12:52:34.024Z,3.23
2017-12-11T12:53:33.918Z,3.17
2017-12-11T12:54:34.389Z,3.21
2017-12-11T12:55:34.305Z,3.19
2017-12-11T12:56:34.096Z,3.16
2017-12-11T12:57:34.145Z,3.21
2017-12-11T12:58:34.052Z,3.16
2017-12-11T12:59:34.523Z,3.23
2017-12-11T13:00:34.692Z,3.2
2017-12-11T13:01:50.338Z,3.08
2017-12-11T13:02:36.975Z,3.19
2017-12-11T13:03:37.396Z,3.14
2017-12-11T13:04:38.081Z,3.16
2017-12-11T13:05:37.969Z,3.13
2017-12-11T13:06:38.077Z,3.17
2017-12-11T13:07:38.049Z,3.17
2017-12-11T13:08:38.831Z,3.14
2017-12-11T13:09:38.362Z,3.17
2017-12-11T13:10:38.539Z,3.11
2017-12-11T13:11:38.960Z,3.13
2017-12-11T13:12:44.563Z,3.08
2017-12-11T13:13:43.929Z,3.2
2017-12-11T13:14:43.703Z,3.11
2017-12-11T13:15:44.115Z,3.08
2017-12-11T13:16:44.308Z,3.06
2017-12-11T13:17:44.131Z,3.02
2017-12-11T13:18:44.164Z,2.93
2017-12-11T13:19:44.510Z,3.09
2017-12-11T13:20:44.190Z,3.06
2017-12-11T13:21:44.267Z,3.05
2017-12-11T13:22:43.917Z,3.13
2017-12-11T13:23:44.512Z,3.01
2017-12-11T13:24:44.255Z,3.01
2017-12-11T13:25:45.100Z,2.98
2017-12-11T13:26:45.212Z,2.91
2017-12-11T13:27:44.936Z,2.96